Time;durP1;ratioP1;P1;durP2;ratioP2;P2;SDS_P1;SDS_P2;PMS_P1;PMS_P2;Temp;Humidity;BMP_temperature;BMP_pressure;BME280_temperature;BME280_humidity;BME280_pressure;Samples;Min_cycle;Max_cycle;Signal;HPM_P1;HPM_P2
2023/12/08 00:00:07;;;;;;;24.23;13.20;;;-0.50;99.90;;;;;;4988282;28;20800;-58
2023/12/08 00:02:33;;;;;;;27.73;12.97;;;-0.50;99.90;;;;;;4992108;28;20278;-58
2023/12/08 00:04:59;;;;;;;29.23;14.80;;;-0.50;99.90;;;;;;4986799;28;20548;-57
2023/12/08 00:07:26;;;;;;;27.23;14.37;;;-0.50;99.90;;;;;;4988299;28;20945;-58
2023/12/08 00:09:51;;;;;;;24.63;14.17;;;-0.50;99.90;;;;;;4993171;28;20433;-59
2023/12/08 00:12:17;;;;;;;23.40;13.47;;;-0.50;99.90;;;;;;4987652;28;20210;-57
2023/12/08 00:14:43;;;;;;;29.60;14.23;;;-0.50;99.90;;;;;;4985448;28;20561;-56
2023/12/08 00:17:08;;;;;;;32.10;13.47;;;-0.50;99.90;;;;;;4988846;28;20187;-59
2023/12/08 00:19:34;;;;;;;29.13;13.57;;;-0.50;99.90;;;;;;4984519;28;20628;-57
2023/12/08 00:22:00;;;;;;;28.13;14.50;;;-0.50;99.90;;;;;;4985496;28;20732;-58
2023/12/08 00:24:25;;;;;;;25.60;14.70;;;-0.40;99.90;;;;;;4983214;28;20199;-57
2023/12/08 00:26:51;;;;;;;27.40;14.70;;;-0.40;99.90;;;;;;4985416;28;20238;-57
2023/12/08 00:29:20;;;;;;;24.90;13.37;;;-0.40;99.90;;;;;;4985083;28;20282;-56
2023/12/08 00:31:45;;;;;;;25.50;14.63;;;-0.40;99.90;;;;;;4985996;28;20647;-57
2023/12/08 00:34:11;;;;;;;28.83;15.40;;;-0.40;99.90;;;;;;4982067;28;20491;-57
2023/12/08 00:36:37;;;;;;;27.73;14.80;;;-0.40;99.90;;;;;;4985808;28;20476;-58
2023/12/08 00:39:02;;;;;;;31.47;15.60;;;-0.50;99.90;;;;;;4988032;28;20179;-55
2023/12/08 00:41:28;;;;;;;31.17;15.60;;;-0.50;99.90;;;;;;4985715;28;20185;-57
2023/12/08 00:43:54;;;;;;;27.83;15.10;;;-0.50;99.90;;;;;;4984461;28;20671;-58
2023/12/08 00:46:19;;;;;;;26.10;14.63;;;-0.40;99.90;;;;;;4987908;28;20191;-57
2023/12/08 00:48:45;;;;;;;33.33;15.30;;;-0.40;99.90;;;;;;4985242;28;20293;-55
2023/12/08 00:51:14;;;;;;;26.67;15.23;;;-0.40;99.90;;;;;;4986116;28;20254;-57
2023/12/08 00:53:42;;;;;;;31.23;15.60;;;-0.40;99.90;;;;;;4984857;28;20666;-58
2023/12/08 00:56:09;;;;;;;27.53;14.80;;;-0.40;99.90;;;;;;4987805;28;20510;-58
2023/12/08 00:58:36;;;;;;;34.90;14.50;;;-0.40;99.90;;;;;;4984000;28;20505;-58
2023/12/08 01:01:01;;;;;;;25.13;14.73;;;-0.40;99.90;;;;;;4986384;28;20421;-57
2023/12/08 01:03:27;;;;;;;31.93;15.57;;;-0.40;99.90;;;;;;4986218;28;20450;-58
2023/12/08 01:05:53;;;;;;;27.47;14.87;;;-0.40;99.90;;;;;;4987341;28;20184;-57
2023/12/08 01:08:18;;;;;;;35.13;15.20;;;-0.40;99.90;;;;;;4986078;28;20187;-57
2023/12/08 01:10:44;;;;;;;26.07;14.43;;;-0.40;99.90;;;;;;4987616;28;20194;-58
2023/12/08 01:13:09;;;;;;;25.57;14.60;;;-0.40;99.90;;;;;;4986306;28;20243;-56
2023/12/08 01:15:35;;;;;;;27.90;14.40;;;-0.40;99.90;;;;;;4983397;28;20182;-58
2023/12/08 01:18:01;;;;;;;27.90;14.83;;;-0.40;99.90;;;;;;4985162;28;20222;-57
2023/12/08 01:20:26;;;;;;;27.20;14.37;;;-0.40;99.90;;;;;;4985896;28;20192;-58
2023/12/08 01:22:52;;;;;;;27.83;13.90;;;-0.40;99.90;;;;;;4986606;28;20258;-58
2023/12/08 01:25:18;;;;;;;27.13;14.87;;;-0.40;99.90;;;;;;4985315;28;20188;-58
2023/12/08 01:27:43;;;;;;;26.83;14.33;;;-0.40;99.90;;;;;;4984551;28;20256;-57
2023/12/08 01:30:10;;;;;;;27.50;15.67;;;-0.40;99.90;;;;;;4985608;28;24596;-57
2023/12/08 01:32:35;;;;;;;24.70;14.40;;;-0.40;99.90;;;;;;4988427;28;20215;-58
2023/12/08 01:35:01;;;;;;;24.07;13.83;;;-0.40;99.90;;;;;;4990679;28;20998;-58
2023/12/08 01:37:27;;;;;;;25.30;13.13;;;-0.40;99.90;;;;;;4990716;28;20187;-58
2023/12/08 01:39:52;;;;;;;23.70;13.53;;;-0.40;99.90;;;;;;4990475;28;20831;-58
2023/12/08 01:42:18;;;;;;;26.67;13.77;;;-0.40;99.90;;;;;;4989241;28;20314;-58
2023/12/08 01:44:43;;;;;;;25.43;13.80;;;-0.30;99.90;;;;;;4991259;28;20294;-58
2023/12/08 01:47:11;;;;;;;27.77;13.53;;;-0.40;99.90;;;;;;4987942;28;20196;-58
2023/12/08 01:49:40;;;;;;;24.73;14.00;;;-0.40;99.90;;;;;;4982498;28;20184;-57
2023/12/08 01:52:08;;;;;;;23.67;13.30;;;-0.30;99.90;;;;;;4989033;28;20843;-58
2023/12/08 01:54:34;;;;;;;23.90;13.50;;;-0.30;99.90;;;;;;4989472;28;20435;-57
2023/12/08 01:57:01;;;;;;;22.57;12.77;;;-0.30;99.90;;;;;;4990275;28;20964;-58
2023/12/08 01:59:27;;;;;;;23.63;11.97;;;-0.40;99.90;;;;;;4990258;28;21401;-58
2023/12/08 02:01:52;;;;;;;22.10;12.73;;;-0.30;99.90;;;;;;4986645;28;20445;-58
2023/12/08 02:04:18;;;;;;;17.37;11.47;;;-0.30;99.90;;;;;;4990318;28;20454;-57
2023/12/08 02:06:44;;;;;;;21.87;10.87;;;-0.30;99.90;;;;;;4986455;28;20195;-58
2023/12/08 02:09:09;;;;;;;20.90;11.83;;;-0.40;99.90;;;;;;4990476;28;20673;-58
2023/12/08 02:11:35;;;;;;;19.53;11.20;;;-0.40;99.90;;;;;;4988759;28;20762;-58
2023/12/08 02:14:03;;;;;;;30.37;12.00;;;-0.40;99.90;;;;;;4990140;28;20217;-56
2023/12/08 02:16:45;;;;;;;22.73;12.00;;;-0.40;99.90;;;;;;4987121;28;20984;-58
2023/12/08 02:19:13;;;;;;;23.87;11.87;;;-0.40;99.90;;;;;;4989957;28;20433;-57
2023/12/08 02:21:39;;;;;;;19.17;12.17;;;-0.40;99.90;;;;;;4988788;28;20414;-57
2023/12/08 02:24:05;;;;;;;19.10;11.20;;;-0.40;99.90;;;;;;4986283;28;20544;-56
2023/12/08 02:26:30;;;;;;;18.77;12.00;;;-0.40;99.90;;;;;;4986409;28;20566;-57
2023/12/08 02:28:56;;;;;;;19.03;10.33;;;-0.40;99.90;;;;;;4988591;28;20761;-58
2023/12/08 02:31:35;;;;;;;17.97;11.90;;;-0.40;99.90;;;;;;4989433;28;20183;-59
2023/12/08 02:34:02;;;;;;;25.93;11.80;;;-0.40;99.90;;;;;;4986431;28;20478;-57
2023/12/08 02:36:28;;;;;;;22.53;13.13;;;-0.40;99.90;;;;;;4988917;28;20551;-57
2023/12/08 02:38:55;;;;;;;21.03;11.77;;;-0.40;99.90;;;;;;4991135;28;20951;-58
2023/12/08 02:41:20;;;;;;;23.27;11.83;;;-0.40;99.90;;;;;;4987032;28;20427;-58
2023/12/08 02:43:46;;;;;;;24.53;11.57;;;-0.40;99.90;;;;;;4989613;28;20980;-58
2023/12/08 02:46:12;;;;;;;18.97;12.30;;;-0.40;99.90;;;;;;4987773;28;20563;-58
2023/12/08 02:48:38;;;;;;;23.00;12.60;;;-0.40;99.90;;;;;;4987983;28;20418;-57
2023/12/08 02:51:04;;;;;;;20.90;11.23;;;-0.40;99.90;;;;;;4989315;28;20180;-57
2023/12/08 02:53:29;;;;;;;22.07;11.53;;;-0.40;99.90;;;;;;4990152;28;20655;-58
2023/12/08 02:55:55;;;;;;;23.33;12.53;;;-0.30;99.90;;;;;;4984722;28;20466;-58
2023/12/08 02:58:20;;;;;;;23.57;13.17;;;-0.30;99.90;;;;;;4990043;28;20184;-58
2023/12/08 03:00:46;;;;;;;22.90;12.90;;;-0.30;99.90;;;;;;4988154;28;20188;-58
2023/12/08 03:03:12;;;;;;;24.80;12.70;;;-0.30;99.90;;;;;;4985121;28;20792;-56
2023/12/08 03:05:37;;;;;;;25.07;12.67;;;-0.30;99.90;;;;;;4982599;28;20245;-58
2023/12/08 03:08:03;;;;;;;22.63;13.00;;;-0.30;99.90;;;;;;4985949;28;20184;-58
2023/12/08 03:10:28;;;;;;;25.73;13.67;;;-0.30;99.90;;;;;;4991686;28;20621;-58
2023/12/08 03:12:54;;;;;;;21.63;12.97;;;-0.20;99.90;;;;;;4983116;28;20792;-59
2023/12/08 03:15:20;;;;;;;25.40;12.77;;;-0.30;99.90;;;;;;4988051;28;20198;-58
2023/12/08 03:17:45;;;;;;;21.17;12.33;;;-0.20;99.90;;;;;;4987515;28;20206;-58
2023/12/08 03:20:11;;;;;;;25.17;13.63;;;-0.30;99.90;;;;;;4985894;28;20681;-55
2023/12/08 03:22:37;;;;;;;25.50;11.80;;;-0.30;99.90;;;;;;4983189;28;20195;-59
2023/12/08 03:25:02;;;;;;;22.87;13.53;;;-0.30;99.90;;;;;;4989685;28;20206;-56
2023/12/08 03:27:28;;;;;;;25.60;12.90;;;-0.30;99.90;;;;;;4987651;28;20188;-57
2023/12/08 03:29:53;;;;;;;19.30;12.10;;;-0.30;99.90;;;;;;4985742;28;20615;-56
2023/12/08 03:32:19;;;;;;;20.00;11.97;;;-0.30;99.90;;;;;;4988050;28;20216;-57
2023/12/08 03:34:44;;;;;;;21.10;11.70;;;-0.30;99.90;;;;;;4986640;28;20206;-58
2023/12/08 03:37:10;;;;;;;22.20;12.97;;;-0.30;99.90;;;;;;4986716;28;20186;-58
2023/12/08 03:39:36;;;;;;;22.40;12.67;;;-0.30;99.90;;;;;;4988776;28;20184;-58
2023/12/08 03:42:01;;;;;;;23.27;13.03;;;-0.20;99.90;;;;;;4987709;28;20562;-56
2023/12/08 03:44:27;;;;;;;23.20;12.10;;;-0.20;99.90;;;;;;4989594;28;20329;-57
2023/12/08 03:46:52;;;;;;;24.00;12.37;;;-0.20;99.90;;;;;;4984206;28;20180;-58
2023/12/08 03:49:18;;;;;;;30.00;13.50;;;-0.20;99.90;;;;;;4987485;28;20562;-57
2023/12/08 03:51:44;;;;;;;22.20;12.53;;;-0.20;99.90;;;;;;4988404;28;20175;-57
2023/12/08 03:54:09;;;;;;;24.17;12.67;;;-0.20;99.90;;;;;;4986558;28;20239;-57
2023/12/08 03:56:35;;;;;;;23.83;12.63;;;-0.20;99.90;;;;;;4988826;28;21037;-58
2023/12/08 03:59:00;;;;;;;19.53;11.67;;;-0.20;99.90;;;;;;4989291;28;20255;-57
2023/12/08 04:01:26;;;;;;;27.73;12.53;;;-0.20;99.90;;;;;;4987368;28;20183;-58
2023/12/08 04:03:52;;;;;;;27.43;13.70;;;-0.20;99.90;;;;;;4987582;28;20245;-58
2023/12/08 04:06:17;;;;;;;22.60;12.83;;;-0.20;99.90;;;;;;4986615;28;20774;-57
2023/12/08 04:08:43;;;;;;;22.53;11.87;;;-0.20;99.90;;;;;;4988010;28;20707;-58
2023/12/08 04:11:09;;;;;;;17.20;11.23;;;-0.20;99.90;;;;;;4988240;28;20188;-59
2023/12/08 04:13:35;;;;;;;20.50;12.10;;;-0.20;99.90;;;;;;4988904;28;20214;-56
2023/12/08 04:16:00;;;;;;;22.80;13.07;;;-0.20;99.90;;;;;;4988425;28;20449;-58
2023/12/08 04:18:26;;;;;;;28.43;13.50;;;-0.20;99.90;;;;;;4991279;28;20175;-58
2023/12/08 04:20:51;;;;;;;29.43;13.27;;;-0.20;99.90;;;;;;4986880;28;20651;-57
2023/12/08 04:23:17;;;;;;;23.23;12.80;;;-0.20;99.90;;;;;;4987612;28;20223;-57
2023/12/08 04:25:42;;;;;;;22.27;12.40;;;-0.20;99.90;;;;;;4989660;28;20187;-57
2023/12/08 04:28:08;;;;;;;22.40;12.10;;;-0.20;99.90;;;;;;4986905;28;20686;-57
2023/12/08 04:30:34;;;;;;;23.47;12.77;;;-0.20;99.90;;;;;;4985614;28;20311;-58
2023/12/08 04:32:59;;;;;;;22.07;12.87;;;-0.20;99.90;;;;;;4986206;28;20212;-57
2023/12/08 04:35:25;;;;;;;25.87;13.93;;;-0.10;99.90;;;;;;4982144;28;20687;-58
2023/12/08 04:37:50;;;;;;;22.90;11.50;;;-0.10;99.90;;;;;;4988629;28;20189;-58
2023/12/08 04:40:17;;;;;;;24.43;14.73;;;-0.10;99.90;;;;;;4984730;28;20183;-57
2023/12/08 04:42:43;;;;;;;22.93;14.33;;;-0.10;99.90;;;;;;4987136;28;20566;-58
2023/12/08 04:45:09;;;;;;;26.37;14.13;;;0.00;99.90;;;;;;4984352;28;20538;-58
2023/12/08 04:47:36;;;;;;;27.60;14.67;;;0.00;99.90;;;;;;4983350;28;20423;-58
2023/12/08 04:50:02;;;;;;;26.13;13.47;;;0.00;99.90;;;;;;4986116;28;20525;-58
2023/12/08 04:52:28;;;;;;;20.23;12.43;;;0.00;99.90;;;;;;4986491;28;20490;-60
2023/12/08 04:54:54;;;;;;;21.67;12.60;;;0.00;99.90;;;;;;4979454;28;20507;-56
2023/12/08 04:57:19;;;;;;;24.47;13.40;;;0.10;99.90;;;;;;4986634;28;20520;-56
2023/12/08 04:59:45;;;;;;;25.80;13.37;;;0.10;99.90;;;;;;4986007;28;20187;-57
2023/12/08 05:02:11;;;;;;;21.93;12.33;;;0.10;99.90;;;;;;4982907;28;20286;-58
2023/12/08 05:04:36;;;;;;;24.60;13.17;;;0.10;99.90;;;;;;4975925;28;20578;-55
2023/12/08 05:07:03;;;;;;;26.73;13.67;;;0.10;99.90;;;;;;4988045;28;20269;-57
2023/12/08 05:09:28;;;;;;;26.03;13.30;;;0.10;99.90;;;;;;4990432;28;20430;-56
2023/12/08 05:11:54;;;;;;;29.70;13.57;;;0.10;99.90;;;;;;4984814;28;20572;-59
2023/12/08 05:14:19;;;;;;;33.17;15.70;;;0.10;99.90;;;;;;4984801;28;20476;-58
2023/12/08 05:16:45;;;;;;;28.80;14.40;;;0.10;99.90;;;;;;4991381;28;20658;-57
2023/12/08 05:19:11;;;;;;;27.90;13.50;;;0.20;99.90;;;;;;4992163;28;20201;-57
2023/12/08 05:21:36;;;;;;;25.50;13.17;;;0.20;99.90;;;;;;4989612;28;20197;-60
2023/12/08 05:24:02;;;;;;;27.17;14.10;;;0.30;99.90;;;;;;4990424;28;20617;-61
2023/12/08 05:26:27;;;;;;;25.33;14.33;;;0.30;99.90;;;;;;4989118;28;20187;-57
2023/12/08 05:28:53;;;;;;;25.87;14.10;;;0.30;99.90;;;;;;4992816;28;20272;-60
2023/12/08 05:31:18;;;;;;;28.30;15.57;;;0.40;99.90;;;;;;4981560;28;20184;-54
2023/12/08 05:33:44;;;;;;;28.70;16.10;;;0.40;99.90;;;;;;4989953;28;20218;-57
2023/12/08 05:36:10;;;;;;;27.80;14.60;;;0.40;99.90;;;;;;4986805;28;20190;-56
2023/12/08 05:38:36;;;;;;;27.63;14.23;;;0.40;99.90;;;;;;4993166;28;20179;-57
2023/12/08 05:41:03;;;;;;;23.17;13.27;;;0.40;99.90;;;;;;4993360;28;20188;-57
2023/12/08 05:43:29;;;;;;;23.63;13.80;;;0.40;99.90;;;;;;4989164;28;20203;-58
2023/12/08 05:45:54;;;;;;;30.00;13.40;;;0.40;99.90;;;;;;4985917;28;20453;-57
2023/12/08 05:48:21;;;;;;;31.10;14.40;;;0.40;99.90;;;;;;4989553;28;20435;-58
2023/12/08 05:50:47;;;;;;;28.03;14.23;;;0.40;99.90;;;;;;4983876;28;20719;-57
2023/12/08 05:53:13;;;;;;;31.17;14.80;;;0.40;99.90;;;;;;4993366;28;20479;-57
2023/12/08 05:55:39;;;;;;;23.23;14.30;;;0.40;99.90;;;;;;4983382;28;20530;-57
2023/12/08 05:58:05;;;;;;;27.00;15.10;;;0.40;99.90;;;;;;4991889;28;20507;-58
2023/12/08 06:00:30;;;;;;;25.97;14.10;;;0.40;99.90;;;;;;4993454;28;20430;-57
2023/12/08 06:02:56;;;;;;;27.07;14.20;;;0.40;99.90;;;;;;4987912;28;20189;-57
2023/12/08 06:05:22;;;;;;;28.83;14.77;;;0.40;99.90;;;;;;4984050;28;20266;-58
2023/12/08 06:07:47;;;;;;;29.43;15.37;;;0.40;99.90;;;;;;4990336;28;20190;-57
2023/12/08 06:10:13;;;;;;;28.83;16.10;;;0.40;99.90;;;;;;4978978;28;20183;-58
2023/12/08 06:12:39;;;;;;;26.93;14.27;;;0.40;99.90;;;;;;4989262;28;20307;-59
2023/12/08 06:15:06;;;;;;;27.93;15.83;;;0.40;99.90;;;;;;4988360;28;20215;-58
2023/12/08 06:17:32;;;;;;;27.27;14.17;;;0.50;99.90;;;;;;4987149;28;20441;-58
2023/12/08 06:19:58;;;;;;;33.80;16.37;;;0.50;99.90;;;;;;4985246;28;20434;-59
2023/12/08 06:22:23;;;;;;;28.17;15.17;;;0.50;99.90;;;;;;4985256;28;20178;-59
2023/12/08 06:24:49;;;;;;;30.47;15.93;;;0.60;99.90;;;;;;4983632;28;20206;-59
2023/12/08 06:27:15;;;;;;;30.53;15.63;;;0.60;99.90;;;;;;4986013;28;20194;-60
2023/12/08 06:29:41;;;;;;;33.50;16.40;;;0.60;99.90;;;;;;4986697;28;20188;-58
2023/12/08 06:32:07;;;;;;;37.90;15.63;;;0.60;99.90;;;;;;4986343;28;20434;-58
2023/12/08 06:34:33;;;;;;;28.27;16.27;;;0.70;99.90;;;;;;4984848;28;20412;-58
2023/12/08 06:36:58;;;;;;;29.10;15.30;;;0.70;99.90;;;;;;4986488;28;20442;-58
2023/12/08 06:39:24;;;;;;;30.80;16.07;;;0.70;99.90;;;;;;4988445;28;21179;-59
2023/12/08 06:41:49;;;;;;;31.77;16.10;;;0.80;99.90;;;;;;4986648;28;20176;-60
2023/12/08 06:44:15;;;;;;;31.27;15.53;;;0.80;99.90;;;;;;4981650;28;20207;-57
2023/12/08 06:46:43;;;;;;;37.20;19.17;;;0.80;99.90;;;;;;4987604;28;20186;-60
2023/12/08 06:49:09;;;;;;;35.97;19.07;;;0.80;99.90;;;;;;4988751;28;20577;-59
2023/12/08 06:51:35;;;;;;;55.03;24.27;;;0.90;99.90;;;;;;4985245;28;21027;-59
2023/12/08 06:54:02;;;;;;;136.03;48.07;;;0.90;99.90;;;;;;4986380;28;20212;-58
2023/12/08 06:56:28;;;;;;;45.77;20.43;;;0.90;99.90;;;;;;4993582;28;20447;-59
2023/12/08 06:58:54;;;;;;;35.90;17.83;;;0.90;99.90;;;;;;4990526;28;20412;-59
2023/12/08 07:01:19;;;;;;;48.50;21.30;;;0.90;99.90;;;;;;4996844;28;20410;-59
2023/12/08 07:03:45;;;;;;;32.93;15.50;;;0.90;99.90;;;;;;4998002;28;20202;-59
2023/12/08 07:06:10;;;;;;;29.73;14.60;;;1.00;99.90;;;;;;4996372;28;20187;-59
2023/12/08 07:08:36;;;;;;;29.57;15.00;;;1.00;99.90;;;;;;4993216;28;20177;-58
2023/12/08 07:11:02;;;;;;;26.47;13.67;;;1.10;99.90;;;;;;4996617;28;20535;-59
2023/12/08 07:13:28;;;;;;;27.20;14.63;;;1.20;99.90;;;;;;4991356;28;20210;-56
2023/12/08 07:15:53;;;;;;;28.40;14.90;;;1.20;99.90;;;;;;4993525;28;20415;-57
2023/12/08 07:18:19;;;;;;;27.10;13.20;;;1.30;99.90;;;;;;4989922;28;20176;-56
2023/12/08 07:20:45;;;;;;;17.70;10.40;;;1.30;99.90;;;;;;4993931;28;20180;-58
2023/12/08 07:23:10;;;;;;;23.00;12.13;;;1.30;99.90;;;;;;4993632;28;20265;-58
2023/12/08 07:25:36;;;;;;;23.03;11.00;;;1.40;99.90;;;;;;4993417;28;20183;-57
2023/12/08 07:28:02;;;;;;;24.77;11.63;;;1.40;99.90;;;;;;4996809;28;20181;-57
2023/12/08 07:30:27;;;;;;;20.93;11.40;;;1.40;99.90;;;;;;4986534;28;20240;-57
2023/12/08 07:32:53;;;;;;;23.60;10.50;;;1.50;99.90;;;;;;4986556;28;20223;-56
2023/12/08 07:35:19;;;;;;;21.67;10.50;;;1.50;99.90;;;;;;4983894;28;20185;-57
2023/12/08 07:37:45;;;;;;;18.10;10.23;;;1.60;99.90;;;;;;4987252;28;20183;-57
2023/12/08 07:40:11;;;;;;;18.30;9.80;;;1.60;99.90;;;;;;4985587;28;20448;-55
2023/12/08 07:42:37;;;;;;;14.70;8.50;;;1.60;99.90;;;;;;4991167;28;21166;-58
2023/12/08 07:45:06;;;;;;;16.70;9.53;;;1.70;99.90;;;;;;4995502;28;20246;-57
2023/12/08 07:47:32;;;;;;;19.40;10.30;;;1.80;99.90;;;;;;4990890;28;20260;-57
2023/12/08 07:49:58;;;;;;;20.90;10.23;;;1.80;99.90;;;;;;4987255;28;20961;-57
2023/12/08 07:52:24;;;;;;;15.23;9.00;;;1.90;99.90;;;;;;4993371;28;20207;-57
2023/12/08 07:54:50;;;;;;;20.40;10.10;;;1.90;99.90;;;;;;4988764;28;20446;-58
2023/12/08 07:57:15;;;;;;;19.40;10.20;;;1.90;99.90;;;;;;4989156;28;20997;-57
2023/12/08 07:59:41;;;;;;;18.67;9.50;;;1.90;99.90;;;;;;4992532;28;20673;-57
2023/12/08 08:02:07;;;;;;;15.67;8.77;;;2.00;99.90;;;;;;4983402;28;20173;-58
2023/12/08 08:04:32;;;;;;;17.03;10.17;;;2.00;99.90;;;;;;4981896;28;20204;-57
2023/12/08 08:06:58;;;;;;;17.43;10.40;;;2.00;99.90;;;;;;4982204;28;20174;-57
2023/12/08 08:09:24;;;;;;;13.67;7.77;;;2.00;99.90;;;;;;4985152;28;20260;-58
2023/12/08 08:11:49;;;;;;;19.90;9.53;;;2.00;99.90;;;;;;4986641;28;20742;-56
2023/12/08 08:14:15;;;;;;;14.63;9.27;;;2.10;99.90;;;;;;4985490;28;20761;-57
2023/12/08 08:16:41;;;;;;;13.13;8.43;;;2.10;99.90;;;;;;4988270;28;20548;-57
2023/12/08 08:19:06;;;;;;;16.00;9.70;;;2.10;99.90;;;;;;4987926;28;20191;-57
2023/12/08 08:21:32;;;;;;;17.53;8.50;;;2.20;99.90;;;;;;4984626;28;20239;-57
2023/12/08 08:23:57;;;;;;;14.93;8.00;;;2.20;99.90;;;;;;4981811;28;20838;-57
2023/12/08 08:26:24;;;;;;;14.40;8.00;;;2.20;99.90;;;;;;4986450;28;20209;-58
2023/12/08 08:28:50;;;;;;;13.00;7.10;;;2.30;99.90;;;;;;4987660;28;20273;-56
2023/12/08 08:31:19;;;;;;;13.50;7.10;;;2.30;99.90;;;;;;4982169;28;21117;-55
2023/12/08 08:33:45;;;;;;;14.10;7.73;;;2.40;99.90;;;;;;4983589;28;20201;-57
2023/12/08 08:36:11;;;;;;;12.30;6.57;;;2.40;99.90;;;;;;4979385;28;20443;-58
2023/12/08 08:38:37;;;;;;;13.13;6.70;;;2.40;99.90;;;;;;4981668;28;20180;-56
2023/12/08 08:41:03;;;;;;;10.60;7.07;;;2.50;99.90;;;;;;4987715;28;20416;-58
2023/12/08 08:43:29;;;;;;;11.37;6.40;;;2.50;99.90;;;;;;4980235;28;20454;-58
2023/12/08 08:45:55;;;;;;;9.17;5.60;;;2.50;99.90;;;;;;4984705;28;20470;-58
2023/12/08 08:48:20;;;;;;;12.17;7.13;;;2.50;99.90;;;;;;4987036;28;20192;-57
2023/12/08 08:50:48;;;;;;;9.77;5.87;;;2.60;99.90;;;;;;4990161;28;20863;-56
2023/12/08 08:53:14;;;;;;;9.00;5.87;;;2.60;99.90;;;;;;4992132;28;20220;-57
2023/12/08 08:55:40;;;;;;;9.83;5.73;;;2.60;99.90;;;;;;4988435;28;20451;-57
2023/12/08 08:58:06;;;;;;;9.00;5.97;;;2.70;99.90;;;;;;4984452;28;20448;-59
2023/12/08 09:00:31;;;;;;;11.60;6.07;;;2.70;99.90;;;;;;4986752;28;20245;-57
2023/12/08 09:02:57;;;;;;;12.63;6.73;;;2.70;99.90;;;;;;4994433;28;20175;-58
2023/12/08 09:05:23;;;;;;;13.53;7.67;;;2.70;99.90;;;;;;4994921;28;20276;-57
2023/12/08 09:07:49;;;;;;;14.40;7.30;;;2.70;99.90;;;;;;4992476;28;20185;-56
2023/12/08 09:10:15;;;;;;;18.73;10.37;;;2.70;99.90;;;;;;4990226;28;20432;-57
2023/12/08 09:12:40;;;;;;;17.20;10.27;;;2.70;99.90;;;;;;4991785;28;20197;-58
2023/12/08 09:15:06;;;;;;;20.23;11.60;;;2.70;99.90;;;;;;4993024;28;20798;-58
2023/12/08 09:17:32;;;;;;;21.30;12.00;;;2.70;99.90;;;;;;4986508;28;20265;-58
2023/12/08 09:19:58;;;;;;;19.57;11.33;;;2.70;99.90;;;;;;4989044;28;20427;-59
2023/12/08 09:22:23;;;;;;;20.57;11.57;;;2.70;99.90;;;;;;4992955;28;20173;-56
2023/12/08 09:24:49;;;;;;;21.33;12.37;;;2.70;99.90;;;;;;4992010;28;20228;-56
2023/12/08 09:27:14;;;;;;;20.43;11.23;;;2.70;99.90;;;;;;4991209;28;20177;-58
2023/12/08 09:29:40;;;;;;;19.80;10.00;;;2.70;99.90;;;;;;4990773;28;20220;-57
2023/12/08 09:32:06;;;;;;;20.13;10.40;;;2.70;99.90;;;;;;4992261;28;20196;-56
2023/12/08 09:34:31;;;;;;;20.30;11.70;;;2.70;99.90;;;;;;4985197;28;20354;-56
2023/12/08 09:36:57;;;;;;;18.60;10.50;;;2.70;99.90;;;;;;4984825;28;20678;-58
2023/12/08 09:39:23;;;;;;;17.00;9.67;;;2.70;99.90;;;;;;4982962;28;20267;-57
2023/12/08 09:41:54;;;;;;;17.53;8.90;;;2.70;99.90;;;;;;4986605;28;21452;-57
2023/12/08 09:44:20;;;;;;;16.40;10.17;;;2.60;99.90;;;;;;4985985;28;20205;-58
2023/12/08 09:46:54;;;;;;;16.83;8.90;;;2.60;99.90;;;;;;4987518;28;20510;-58
2023/12/08 09:49:23;;;;;;;18.63;11.10;;;2.60;99.90;;;;;;4983991;28;20183;-58
2023/12/08 09:51:49;;;;;;;16.77;9.80;;;2.60;99.90;;;;;;4983405;28;20448;-58
2023/12/08 09:54:15;;;;;;;20.17;10.40;;;2.70;99.90;;;;;;4983791;28;20479;-58
2023/12/08 09:56:42;;;;;;;23.10;11.50;;;2.70;99.90;;;;;;4986404;28;20433;-56
2023/12/08 09:59:10;;;;;;;22.20;11.00;;;2.70;99.90;;;;;;4992958;28;20421;-58
2023/12/08 10:01:35;;;;;;;20.27;11.13;;;2.70;99.90;;;;;;4988584;28;20412;-58
2023/12/08 10:04:01;;;;;;;18.63;11.73;;;2.70;99.90;;;;;;4989040;28;21017;-57
2023/12/08 10:06:28;;;;;;;24.80;11.60;;;2.70;99.90;;;;;;4989204;28;20174;-58
2023/12/08 10:08:56;;;;;;;16.37;9.83;;;2.80;99.90;;;;;;4981828;28;20578;-58
2023/12/08 10:11:22;;;;;;;17.73;9.30;;;2.80;99.90;;;;;;4987009;28;20526;-58
2023/12/08 10:13:50;;;;;;;15.50;9.33;;;2.80;99.90;;;;;;4987656;28;20478;-58
2023/12/08 10:16:15;;;;;;;19.57;9.47;;;2.90;99.90;;;;;;4992653;28;20428;-59
2023/12/08 10:18:41;;;;;;;16.97;9.20;;;2.90;99.90;;;;;;4989483;28;20796;-58
2023/12/08 10:21:18;;;;;;;18.70;9.97;;;2.90;99.90;;;;;;4985611;28;20261;-59
2023/12/08 10:23:44;;;;;;;13.73;8.70;;;2.90;99.90;;;;;;4986229;28;20276;-58
2023/12/08 10:26:15;;;;;;;12.80;7.60;;;2.90;99.90;;;;;;4983567;28;20443;-57
2023/12/08 10:28:42;;;;;;;13.40;6.43;;;2.90;99.90;;;;;;4988195;28;20570;-59
2023/12/08 10:31:08;;;;;;;8.00;5.90;;;2.90;99.90;;;;;;4988683;28;20503;-58
2023/12/08 10:33:34;;;;;;;10.63;6.90;;;2.90;99.90;;;;;;4984363;28;22121;-59
2023/12/08 10:36:00;;;;;;;10.30;6.40;;;2.90;99.90;;;;;;4984119;28;20982;-58
2023/12/08 10:38:26;;;;;;;11.43;6.80;;;2.90;99.90;;;;;;4987712;28;20519;-58
2023/12/08 10:40:55;;;;;;;11.07;6.87;;;3.00;99.90;;;;;;4987289;28;20524;-58
2023/12/08 10:43:25;;;;;;;10.40;6.60;;;2.90;99.90;;;;;;4985786;28;20323;-58
2023/12/08 10:45:55;;;;;;;12.10;7.10;;;3.00;99.90;;;;;;4984509;28;20448;-59
2023/12/08 10:48:22;;;;;;;14.67;8.33;;;3.00;99.90;;;;;;4985661;28;20432;-58
2023/12/08 10:50:50;;;;;;;12.30;7.60;;;3.00;99.90;;;;;;4985581;28;21104;-57
2023/12/08 10:53:19;;;;;;;13.67;7.90;;;2.90;99.90;;;;;;4987051;28;20614;-58
2023/12/08 10:55:59;;;;;;;12.40;7.60;;;2.90;99.90;;;;;;4990399;28;20803;-58
2023/12/08 10:58:26;;;;;;;14.07;7.70;;;2.90;99.90;;;;;;4980366;28;20431;-58
2023/12/08 11:00:55;;;;;;;14.10;7.97;;;2.90;99.90;;;;;;4985022;28;20439;-63
2023/12/08 11:03:21;;;;;;;11.40;7.03;;;3.00;99.90;;;;;;4987881;28;20525;-63
2023/12/08 11:05:59;;;;;;;11.57;6.47;;;2.90;99.90;;;;;;4988122;28;20432;-63
2023/12/08 11:08:27;;;;;;;10.27;7.20;;;3.00;99.90;;;;;;4994907;28;20419;-64
2023/12/08 11:10:56;;;;;;;11.93;7.40;;;3.00;99.90;;;;;;4993988;28;20460;-62
2023/12/08 11:13:27;;;;;;;12.87;6.90;;;3.00;99.90;;;;;;4992923;28;20560;-63
2023/12/08 11:16:35;;;;;;;11.80;7.53;;;3.00;99.90;;;;;;4993152;28;20434;-64
2023/12/08 11:19:01;;;;;;;13.13;7.63;;;3.00;99.90;;;;;;4995495;28;20469;-63
2023/12/08 11:21:27;;;;;;;13.53;7.60;;;3.00;99.90;;;;;;4989054;28;20495;-64
2023/12/08 11:23:54;;;;;;;13.67;7.80;;;3.00;99.90;;;;;;4985974;28;20455;-64
2023/12/08 11:26:22;;;;;;;10.33;6.93;;;3.00;99.90;;;;;;4986669;28;20422;-64
2023/12/08 11:29:02;;;;;;;10.50;7.27;;;3.00;99.90;;;;;;4986408;28;20428;-63
2023/12/08 11:31:41;;;;;;;10.30;6.40;;;3.00;99.90;;;;;;4985921;28;20417;-63
2023/12/08 11:34:30;;;;;;;11.13;6.50;;;3.00;99.90;;;;;;4985121;28;20471;-63
2023/12/08 11:36:58;;;;;;;9.40;7.03;;;3.00;99.90;;;;;;4986041;28;20416;-63
2023/12/08 11:39:40;;;;;;;11.00;7.30;;;3.00;99.90;;;;;;4987656;28;20404;-65
2023/12/08 11:42:16;;;;;;;11.43;6.83;;;3.00;99.90;;;;;;4988954;28;20870;-63
2023/12/08 11:44:46;;;;;;;10.80;7.10;;;3.00;99.90;;;;;;4991835;28;20498;-64
2023/12/08 11:47:14;;;;;;;12.63;7.00;;;3.00;99.90;;;;;;4991648;28;20419;-64
2023/12/08 11:49:47;;;;;;;9.03;6.90;;;3.00;99.90;;;;;;4985791;28;20431;-63
2023/12/08 11:52:19;;;;;;;12.40;7.00;;;3.00;99.90;;;;;;4989358;28;20450;-63
2023/12/08 11:55:11;;;;;;;11.27;7.03;;;3.00;99.90;;;;;;4984817;28;20813;-64
2023/12/08 11:58:02;;;;;;;13.60;8.53;;;3.00;99.90;;;;;;4992840;28;20440;-64
2023/12/08 12:00:30;;;;;;;10.03;6.53;;;3.00;99.90;;;;;;4972473;28;20943;-64
2023/12/08 12:02:58;;;;;;;14.37;7.57;;;3.00;99.90;;;;;;4992076;28;20963;-64
2023/12/08 12:05:24;;;;;;;11.57;7.60;;;2.90;99.90;;;;;;4987766;28;20974;-64
2023/12/08 12:07:51;;;;;;;11.40;7.37;;;2.90;99.90;;;;;;4994179;28;20431;-64
2023/12/08 12:10:21;;;;;;;16.50;8.40;;;3.00;99.90;;;;;;4993127;28;21075;-64
2023/12/08 12:12:54;;;;;;;15.63;8.20;;;2.90;99.90;;;;;;4992164;28;20489;-63
2023/12/08 12:15:23;;;;;;;15.83;8.30;;;2.90;99.90;;;;;;4982113;28;20404;-63
2023/12/08 12:17:50;;;;;;;13.20;7.97;;;2.90;99.90;;;;;;4988146;28;20428;-64
2023/12/08 12:20:15;;;;;;;14.27;8.93;;;2.90;99.90;;;;;;4987773;28;20412;-63
2023/12/08 12:22:41;;;;;;;16.63;9.67;;;2.90;99.90;;;;;;4984654;28;20490;-64
2023/12/08 12:25:08;;;;;;;14.50;8.90;;;2.90;99.90;;;;;;4985106;28;20208;-63
2023/12/08 12:27:41;;;;;;;11.60;8.20;;;2.90;99.90;;;;;;4989789;28;20183;-64
2023/12/08 12:30:08;;;;;;;15.37;8.70;;;3.00;99.90;;;;;;4993036;28;20926;-64
2023/12/08 12:32:33;;;;;;;17.33;8.93;;;3.00;99.90;;;;;;4985710;28;20564;-63